TimeHST,TemperatureF,Dew PointF,Humidity,Sea Level PressureIn,VisibilityMPH,Wind Direction,Wind SpeedMPH,Gust SpeedMPH,PrecipitationIn,Events,Conditions,WindDirDegrees,DateUTC
12:56 AM,77.0,69.1,76,30.03,10.0,NNE,4.6,-,N/A,,Scattered Clouds,30,2013-07-28 10:56:00
1:56 AM,75.9,69.1,79,30.02,10.0,NE,3.5,-,N/A,,Scattered Clouds,50,2013-07-28 11:56:00
2:56 AM,75.9,66.9,74,30.01,10.0,East,3.5,-,N/A,,Partly Cloudy,90,2013-07-28 12:56:00
3:56 AM,75.9,66.0,71,30.00,10.0,SE,5.8,-,N/A,,Mostly Cloudy,140,2013-07-28 13:56:00
4:56 AM,75.0,64.9,71,30.00,10.0,South,4.6,-,N/A,,Mostly Cloudy,170,2013-07-28 14:56:00
5:56 AM,73.9,63.0,68,30.01,10.0,SE,3.5,-,N/A,,Partly Cloudy,130,2013-07-28 15:56:00
6:56 AM,73.9,61.0,64,30.02,10.0,East,4.6,-,N/A,,Clear,90,2013-07-28 16:56:00
7:56 AM,81.0,61.0,50,30.03,10.0,ENE,3.5,-,N/A,,Clear,60,2013-07-28 17:56:00
8:56 AM,82.0,63.0,52,30.03,10.0,West,6.9,-,N/A,,Clear,270,2013-07-28 18:56:00
9:56 AM,84.0,64.0,51,30.03,10.0,Variable,4.6,-,N/A,,Scattered Clouds,0,2013-07-28 19:56:00
10:56 AM,82.9,66.0,56,30.02,10.0,West,8.1,-,N/A,,Mostly Cloudy,270,2013-07-28 20:56:00
11:56 AM,84.0,66.9,56,30.01,10.0,West,10.4,-,N/A,,Partly Cloudy,280,2013-07-28 21:56:00
12:56 PM,82.9,66.9,58,29.99,10.0,WNW,8.1,-,N/A,,Partly Cloudy,300,2013-07-28 22:56:00
1:56 PM,84.9,66.0,53,29.97,10.0,SW,10.4,-,N/A,,Mostly Cloudy,220,2013-07-28 23:56:00
2:56 PM,86.0,68.0,55,29.96,10.0,SSW,12.7,-,N/A,,Mostly Cloudy,210,2013-07-29 00:56:00
3:56 PM,82.9,69.1,63,29.95,10.0,WSW,10.4,-,N/A,,Partly Cloudy,240,2013-07-29 01:56:00
4:56 PM,82.9,69.1,63,29.94,10.0,West,10.4,-,N/A,,Clear,270,2013-07-29 02:56:00
5:56 PM,82.0,69.1,65,29.94,10.0,WSW,3.5,-,N/A,,Clear,250,2013-07-29 03:56:00
6:56 PM,81.0,68.0,65,29.94,10.0,SSE,5.8,-,N/A,,Scattered Clouds,160,2013-07-29 04:56:00
7:56 PM,79.0,69.1,72,29.96,10.0,Calm,Calm,-,N/A,,Partly Cloudy,0,2013-07-29 05:56:00
8:56 PM,79.0,69.1,72,29.98,10.0,Calm,Calm,-,N/A,,Partly Cloudy,0,2013-07-29 06:56:00
9:56 PM,75.9,60.1,58,30.00,10.0,Calm,Calm,-,N/A,,Clear,0,2013-07-29 07:56:00
10:56 PM,75.9,62.1,62,30.00,10.0,Calm,Calm,-,N/A,,Clear,0,2013-07-29 08:56:00
11:56 PM,73.9,63.0,68,29.99,10.0,East,3.5,-,N/A,,Scattered Clouds,100,2013-07-29 09:56:00